sensor_id;sensor_type;location;lat;lon;timestamp;temperature;humidity
46562;DHT22;32289;42.688;23.330;2023-03-21T00:01:14;11.50;79.10
46562;DHT22;32289;42.688;23.330;2023-03-21T00:04:55;11.50;79.10
46562;DHT22;32289;42.688;23.330;2023-03-21T00:08:36;11.50;81.60
46562;DHT22;32289;42.688;23.330;2023-03-21T00:12:17;11.50;81.50
46562;DHT22;32289;42.688;23.330;2023-03-21T00:16:11;11.40;81.10
46562;DHT22;32289;42.688;23.330;2023-03-21T00:19:54;11.20;81.90
46562;DHT22;32289;42.688;23.330;2023-03-21T00:23:35;11.10;80.10
46562;DHT22;32289;42.688;23.330;2023-03-21T00:27:16;11.10;80.70
46562;DHT22;32289;42.688;23.330;2023-03-21T00:30:59;11.00;80.20
46562;DHT22;32289;42.688;23.330;2023-03-21T00:34:41;11.00;80.00
46562;DHT22;32289;42.688;23.330;2023-03-21T00:38:23;10.90;80.20
46562;DHT22;32289;42.688;23.330;2023-03-21T00:42:04;10.90;80.80
46562;DHT22;32289;42.688;23.330;2023-03-21T00:45:45;10.70;81.10
46562;DHT22;32289;42.688;23.330;2023-03-21T00:49:26;10.90;81.00
46562;DHT22;32289;42.688;23.330;2023-03-21T00:53:07;10.80;81.20
46562;DHT22;32289;42.688;23.330;2023-03-21T00:56:47;10.90;81.80
46562;DHT22;32289;42.688;23.330;2023-03-21T01:00:29;10.90;81.30
46562;DHT22;32289;42.688;23.330;2023-03-21T01:04:10;10.80;82.10
46562;DHT22;32289;42.688;23.330;2023-03-21T01:07:53;10.80;82.90
46562;DHT22;32289;42.688;23.330;2023-03-21T01:11:34;10.70;83.30
46562;DHT22;32289;42.688;23.330;2023-03-21T01:15:15;10.70;83.50
46562;DHT22;32289;42.688;23.330;2023-03-21T01:18:56;10.60;85.10
46562;DHT22;32289;42.688;23.330;2023-03-21T01:22:37;10.50;86.20
46562;DHT22;32289;42.688;23.330;2023-03-21T01:26:18;10.40;86.40
46562;DHT22;32289;42.688;23.330;2023-03-21T01:29:59;10.30;86.80
46562;DHT22;32289;42.688;23.330;2023-03-21T01:33:40;10.40;87.40
46562;DHT22;32289;42.688;23.330;2023-03-21T01:37:21;10.30;87.80
46562;DHT22;32289;42.688;23.330;2023-03-21T01:41:02;10.30;88.40
46562;DHT22;32289;42.688;23.330;2023-03-21T01:44:58;10.30;87.80
46562;DHT22;32289;42.688;23.330;2023-03-21T01:48:41;10.40;88.30
46562;DHT22;32289;42.688;23.330;2023-03-21T01:52:32;10.40;88.20
46562;DHT22;32289;42.688;23.330;2023-03-21T01:56:32;10.30;87.90
46562;DHT22;32289;42.688;23.330;2023-03-21T02:00:14;10.40;88.20
46562;DHT22;32289;42.688;23.330;2023-03-21T02:03:56;10.30;87.60
46562;DHT22;32289;42.688;23.330;2023-03-21T02:07:37;10.20;88.00
46562;DHT22;32289;42.688;23.330;2023-03-21T02:11:21;10.10;88.20
46562;DHT22;32289;42.688;23.330;2023-03-21T02:15:06;10.00;88.40
46562;DHT22;32289;42.688;23.330;2023-03-21T02:19:00;10.00;88.70
46562;DHT22;32289;42.688;23.330;2023-03-21T02:27:06;9.90;88.50
46562;DHT22;32289;42.688;23.330;2023-03-21T02:47:18;9.60;92.40
46562;DHT22;32289;42.688;23.330;2023-03-21T02:51:03;9.60;92.00
46562;DHT22;32289;42.688;23.330;2023-03-21T02:54:45;9.40;92.80
46562;DHT22;32289;42.688;23.330;2023-03-21T02:58:29;9.40;93.40
46562;DHT22;32289;42.688;23.330;2023-03-21T03:02:12;9.30;93.20
46562;DHT22;32289;42.688;23.330;2023-03-21T03:05:55;9.30;93.20
46562;DHT22;32289;42.688;23.330;2023-03-21T03:22:41;9.10;94.60
46562;DHT22;32289;42.688;23.330;2023-03-21T03:26:34;9.00;95.10
46562;DHT22;32289;42.688;23.330;2023-03-21T03:30:16;9.00;95.60
46562;DHT22;32289;42.688;23.330;2023-03-21T03:34:01;8.90;96.00
46562;DHT22;32289;42.688;23.330;2023-03-21T03:37:47;8.80;96.70
46562;DHT22;32289;42.688;23.330;2023-03-21T03:41:29;8.80;96.80
46562;DHT22;32289;42.688;23.330;2023-03-21T03:45:12;8.80;97.00
46562;DHT22;32289;42.688;23.330;2023-03-21T03:49:00;8.80;97.00
46562;DHT22;32289;42.688;23.330;2023-03-21T03:52:46;8.70;97.20
46562;DHT22;32289;42.688;23.330;2023-03-21T03:56:30;8.70;97.20
46562;DHT22;32289;42.688;23.330;2023-03-21T04:00:12;8.70;96.30
46562;DHT22;32289;42.688;23.330;2023-03-21T04:03:55;8.70;95.90
46562;DHT22;32289;42.688;23.330;2023-03-21T04:07:35;8.60;95.80
46562;DHT22;32289;42.688;23.330;2023-03-21T04:11:16;8.60;95.40
46562;DHT22;32289;42.688;23.330;2023-03-21T04:14:57;8.60;96.60
46562;DHT22;32289;42.688;23.330;2023-03-21T04:18:38;8.50;97.20
46562;DHT22;32289;42.688;23.330;2023-03-21T04:22:18;8.50;97.60
46562;DHT22;32289;42.688;23.330;2023-03-21T04:26:00;8.40;98.00
46562;DHT22;32289;42.688;23.330;2023-03-21T04:29:41;8.30;98.20
46562;DHT22;32289;42.688;23.330;2023-03-21T04:33:22;8.20;98.50
46562;DHT22;32289;42.688;23.330;2023-03-21T04:37:05;7.90;99.90
46562;DHT22;32289;42.688;23.330;2023-03-21T04:40:50;7.80;99.90
46562;DHT22;32289;42.688;23.330;2023-03-21T04:44:31;8.10;99.40
46562;DHT22;32289;42.688;23.330;2023-03-21T04:48:11;8.10;99.30
46562;DHT22;32289;42.688;23.330;2023-03-21T04:51:53;8.20;99.70
46562;DHT22;32289;42.688;23.330;2023-03-21T04:55:34;8.20;99.90
46562;DHT22;32289;42.688;23.330;2023-03-21T04:59:16;8.30;99.90
46562;DHT22;32289;42.688;23.330;2023-03-21T05:02:57;8.50;99.80
46562;DHT22;32289;42.688;23.330;2023-03-21T05:06:40;8.60;99.50
46562;DHT22;32289;42.688;23.330;2023-03-21T05:10:22;8.90;98.80
46562;DHT22;32289;42.688;23.330;2023-03-21T05:14:04;8.90;98.70
46562;DHT22;32289;42.688;23.330;2023-03-21T05:17:45;8.90;98.50
46562;DHT22;32289;42.688;23.330;2023-03-21T05:21:28;8.90;98.40
46562;DHT22;32289;42.688;23.330;2023-03-21T05:25:11;9.00;97.10
46562;DHT22;32289;42.688;23.330;2023-03-21T05:28:52;9.20;96.50
46562;DHT22;32289;42.688;23.330;2023-03-21T05:32:36;9.10;96.20
46562;DHT22;32289;42.688;23.330;2023-03-21T05:36:16;9.30;95.60
46562;DHT22;32289;42.688;23.330;2023-03-21T05:39:57;9.50;94.90
46562;DHT22;32289;42.688;23.330;2023-03-21T05:43:38;9.60;94.30
46562;DHT22;32289;42.688;23.330;2023-03-21T05:47:19;9.70;93.60
46562;DHT22;32289;42.688;23.330;2023-03-21T05:51:00;9.90;93.00
46562;DHT22;32289;42.688;23.330;2023-03-21T05:54:41;10.00;92.10
46562;DHT22;32289;42.688;23.330;2023-03-21T05:58:22;10.20;92.00
46562;DHT22;32289;42.688;23.330;2023-03-21T06:02:03;10.30;91.00
46562;DHT22;32289;42.688;23.330;2023-03-21T06:05:44;10.60;90.10
46562;DHT22;32289;42.688;23.330;2023-03-21T06:09:27;10.30;89.20
46562;DHT22;32289;42.688;23.330;2023-03-21T06:13:08;10.70;87.30
46562;DHT22;32289;42.688;23.330;2023-03-21T06:16:49;10.60;86.80
46562;DHT22;32289;42.688;23.330;2023-03-21T06:20:30;11.00;85.10
46562;DHT22;32289;42.688;23.330;2023-03-21T06:24:10;11.00;83.60
46562;DHT22;32289;42.688;23.330;2023-03-21T06:27:51;11.20;82.50
46562;DHT22;32289;42.688;23.330;2023-03-21T06:31:32;11.40;81.60
46562;DHT22;32289;42.688;23.330;2023-03-21T06:35:12;11.40;81.20
46562;DHT22;32289;42.688;23.330;2023-03-21T06:38:53;11.60;81.80
46562;DHT22;32289;42.688;23.330;2023-03-21T06:42:34;11.60;80.80
46562;DHT22;32289;42.688;23.330;2023-03-21T06:46:15;11.70;79.40
46562;DHT22;32289;42.688;23.330;2023-03-21T06:49:55;11.80;78.90
46562;DHT22;32289;42.688;23.330;2023-03-21T06:53:36;11.90;77.80
46562;DHT22;32289;42.688;23.330;2023-03-21T06:57:17;11.90;77.00
46562;DHT22;32289;42.688;23.330;2023-03-21T07:01:00;11.70;79.40
46562;DHT22;32289;42.688;23.330;2023-03-21T07:04:42;11.70;79.80
46562;DHT22;32289;42.688;23.330;2023-03-21T07:08:23;11.80;80.00
46562;DHT22;32289;42.688;23.330;2023-03-21T07:12:03;12.30;78.40
46562;DHT22;32289;42.688;23.330;2023-03-21T07:15:44;12.80;77.40
46562;DHT22;32289;42.688;23.330;2023-03-21T07:19:25;13.00;76.60
46562;DHT22;32289;42.688;23.330;2023-03-21T07:23:07;12.70;78.10
46562;DHT22;32289;42.688;23.330;2023-03-21T07:26:47;12.30;78.40
46562;DHT22;32289;42.688;23.330;2023-03-21T07:30:28;12.20;78.70
46562;DHT22;32289;42.688;23.330;2023-03-21T07:34:09;12.20;78.40
46562;DHT22;32289;42.688;23.330;2023-03-21T07:37:49;12.30;77.60
46562;DHT22;32289;42.688;23.330;2023-03-21T07:41:30;12.40;76.60
46562;DHT22;32289;42.688;23.330;2023-03-21T07:45:11;12.70;76.00
46562;DHT22;32289;42.688;23.330;2023-03-21T07:48:57;12.80;74.40
46562;DHT22;32289;42.688;23.330;2023-03-21T07:52:38;13.60;72.20
46562;DHT22;32289;42.688;23.330;2023-03-21T07:56:19;14.10;67.60
46562;DHT22;32289;42.688;23.330;2023-03-21T08:00:02;14.00;68.20
46562;DHT22;32289;42.688;23.330;2023-03-21T08:03:44;13.70;68.40
46562;DHT22;32289;42.688;23.330;2023-03-21T08:07:24;13.80;68.10
46562;DHT22;32289;42.688;23.330;2023-03-21T08:11:07;13.80;68.20
46562;DHT22;32289;42.688;23.330;2023-03-21T08:14:48;13.60;67.90
46562;DHT22;32289;42.688;23.330;2023-03-21T08:18:28;14.40;66.40
46562;DHT22;32289;42.688;23.330;2023-03-21T08:22:09;14.20;66.00
46562;DHT22;32289;42.688;23.330;2023-03-21T08:25:54;14.20;66.10
46562;DHT22;32289;42.688;23.330;2023-03-21T08:29:36;14.40;65.90
46562;DHT22;32289;42.688;23.330;2023-03-21T08:33:20;14.10;65.00
46562;DHT22;32289;42.688;23.330;2023-03-21T08:37:01;13.90;65.10
46562;DHT22;32289;42.688;23.330;2023-03-21T08:40:42;13.90;64.90
46562;DHT22;32289;42.688;23.330;2023-03-21T08:44:22;14.30;65.20
46562;DHT22;32289;42.688;23.330;2023-03-21T08:48:04;15.10;63.80
46562;DHT22;32289;42.688;23.330;2023-03-21T08:51:45;15.10;62.60
46562;DHT22;32289;42.688;23.330;2023-03-21T08:55:26;15.00;61.90
46562;DHT22;32289;42.688;23.330;2023-03-21T08:59:07;15.40;61.70
46562;DHT22;32289;42.688;23.330;2023-03-21T09:02:49;15.40;60.50
46562;DHT22;32289;42.688;23.330;2023-03-21T09:06:33;15.40;60.40
46562;DHT22;32289;42.688;23.330;2023-03-21T09:10:17;15.20;60.30
46562;DHT22;32289;42.688;23.330;2023-03-21T09:13:57;15.50;60.60
46562;DHT22;32289;42.688;23.330;2023-03-21T09:17:39;15.40;59.70
46562;DHT22;32289;42.688;23.330;2023-03-21T09:21:25;15.30;60.80
46562;DHT22;32289;42.688;23.330;2023-03-21T09:25:06;15.20;59.60
46562;DHT22;32289;42.688;23.330;2023-03-21T09:28:48;15.40;59.90
46562;DHT22;32289;42.688;23.330;2023-03-21T09:32:29;15.10;59.80
46562;DHT22;32289;42.688;23.330;2023-03-21T09:36:10;15.80;59.40
46562;DHT22;32289;42.688;23.330;2023-03-21T09:39:53;15.30;60.80
46562;DHT22;32289;42.688;23.330;2023-03-21T09:47:25;15.40;60.50
46562;DHT22;32289;42.688;23.330;2023-03-21T09:51:14;15.30;61.20
46562;DHT22;32289;42.688;23.330;2023-03-21T09:54:58;15.10;61.20
46562;DHT22;32289;42.688;23.330;2023-03-21T09:58:45;15.90;61.00
46562;DHT22;32289;42.688;23.330;2023-03-21T10:02:43;16.20;59.70
46562;DHT22;32289;42.688;23.330;2023-03-21T10:06:27;15.90;60.60
46562;DHT22;32289;42.688;23.330;2023-03-21T10:10:19;15.80;60.80
46562;DHT22;32289;42.688;23.330;2023-03-21T10:14:12;15.60;60.90
46562;DHT22;32289;42.688;23.330;2023-03-21T10:17:54;15.80;60.50
46562;DHT22;32289;42.688;23.330;2023-03-21T10:21:39;16.30;59.60
46562;DHT22;32289;42.688;23.330;2023-03-21T10:25:36;17.20;57.70
46562;DHT22;32289;42.688;23.330;2023-03-21T10:29:18;17.60;56.40
46562;DHT22;32289;42.688;23.330;2023-03-21T10:33:03;18.60;55.70
46562;DHT22;32289;42.688;23.330;2023-03-21T10:36:48;18.20;54.30
46562;DHT22;32289;42.688;23.330;2023-03-21T10:40:29;19.00;55.00
46562;DHT22;32289;42.688;23.330;2023-03-21T10:44:13;19.00;58.20
46562;DHT22;32289;42.688;23.330;2023-03-21T10:47:54;18.60;54.90
46562;DHT22;32289;42.688;23.330;2023-03-21T10:51:38;18.20;53.20
46562;DHT22;32289;42.688;23.330;2023-03-21T10:55:30;18.10;53.70
46562;DHT22;32289;42.688;23.330;2023-03-21T10:59:17;18.30;53.40
46562;DHT22;32289;42.688;23.330;2023-03-21T11:03:00;18.30;52.80
46562;DHT22;32289;42.688;23.330;2023-03-21T11:06:49;17.80;53.20
46562;DHT22;32289;42.688;23.330;2023-03-21T11:10:34;18.30;53.70
46562;DHT22;32289;42.688;23.330;2023-03-21T11:18:17;18.60;53.70
46562;DHT22;32289;42.688;23.330;2023-03-21T11:22:05;18.50;51.50
46562;DHT22;32289;42.688;23.330;2023-03-21T11:25:48;18.40;51.20
46562;DHT22;32289;42.688;23.330;2023-03-21T11:29:35;17.80;52.10
46562;DHT22;32289;42.688;23.330;2023-03-21T11:33:18;17.70;52.90
46562;DHT22;32289;42.688;23.330;2023-03-21T11:37:00;18.20;52.00
46562;DHT22;32289;42.688;23.330;2023-03-21T11:40:52;18.60;52.00
46562;DHT22;32289;42.688;23.330;2023-03-21T11:44:43;18.00;52.30
46562;DHT22;32289;42.688;23.330;2023-03-21T11:48:24;17.90;52.90
46562;DHT22;32289;42.688;23.330;2023-03-21T11:52:17;18.00;52.40
46562;DHT22;32289;42.688;23.330;2023-03-21T11:56:15;18.20;52.10
46562;DHT22;32289;42.688;23.330;2023-03-21T12:00:13;17.80;52.50
46562;DHT22;32289;42.688;23.330;2023-03-21T12:47:26;17.30;52.60
46562;DHT22;32289;42.688;23.330;2023-03-21T12:51:14;17.40;51.50
46562;DHT22;32289;42.688;23.330;2023-03-21T12:58:56;18.40;50.90
46562;DHT22;32289;42.688;23.330;2023-03-21T13:02:46;18.20;50.70
46562;DHT22;32289;42.688;23.330;2023-03-21T13:06:29;17.60;52.10
46562;DHT22;32289;42.688;23.330;2023-03-21T13:10:18;18.10;51.30
46562;DHT22;32289;42.688;23.330;2023-03-21T13:14:14;17.70;51.30
46562;DHT22;32289;42.688;23.330;2023-03-21T13:18:59;17.20;52.20
46562;DHT22;32289;42.688;23.330;2023-03-21T13:22:28;17.10;52.30
46562;DHT22;32289;42.688;23.330;2023-03-21T13:26:10;17.20;52.90
46562;DHT22;32289;42.688;23.330;2023-03-21T13:30:21;17.40;52.40
46562;DHT22;32289;42.688;23.330;2023-03-21T13:34:03;17.80;51.90
46562;DHT22;32289;42.688;23.330;2023-03-21T13:38:21;17.90;52.00
46562;DHT22;32289;42.688;23.330;2023-03-21T13:42:16;17.70;52.50
46562;DHT22;32289;42.688;23.330;2023-03-21T13:54:03;17.40;53.90
46562;DHT22;32289;42.688;23.330;2023-03-21T13:57:53;17.50;54.40
46562;DHT22;32289;42.688;23.330;2023-03-21T14:01:56;17.40;54.40
46562;DHT22;32289;42.688;23.330;2023-03-21T14:05:38;17.20;55.00
46562;DHT22;32289;42.688;23.330;2023-03-21T14:09:32;17.30;55.40
46562;DHT22;32289;42.688;23.330;2023-03-21T14:13:18;17.40;55.70
46562;DHT22;32289;42.688;23.330;2023-03-21T14:16:59;17.30;56.10
46562;DHT22;32289;42.688;23.330;2023-03-21T14:20:40;17.10;57.00
46562;DHT22;32289;42.688;23.330;2023-03-21T14:24:21;16.90;56.10
46562;DHT22;32289;42.688;23.330;2023-03-21T14:28:05;16.90;57.00
46562;DHT22;32289;42.688;23.330;2023-03-21T14:31:47;16.90;56.90
46562;DHT22;32289;42.688;23.330;2023-03-21T14:35:29;16.80;57.10
46562;DHT22;32289;42.688;23.330;2023-03-21T14:39:21;16.80;57.00
46562;DHT22;32289;42.688;23.330;2023-03-21T14:43:05;16.70;57.30
46562;DHT22;32289;42.688;23.330;2023-03-21T14:46:46;16.40;58.10
46562;DHT22;32289;42.688;23.330;2023-03-21T14:50:36;16.30;59.20
46562;DHT22;32289;42.688;23.330;2023-03-21T14:54:18;16.20;59.20
46562;DHT22;32289;42.688;23.330;2023-03-21T14:57:59;16.20;60.80
46562;DHT22;32289;42.688;23.330;2023-03-21T15:01:40;16.10;63.30
46562;DHT22;32289;42.688;23.330;2023-03-21T15:05:25;16.20;66.20
46562;DHT22;32289;42.688;23.330;2023-03-21T15:09:15;16.00;63.20
46562;DHT22;32289;42.688;23.330;2023-03-21T15:13:01;15.80;65.60
46562;DHT22;32289;42.688;23.330;2023-03-21T15:16:52;15.50;66.70
46562;DHT22;32289;42.688;23.330;2023-03-21T15:20:36;15.40;64.50
46562;DHT22;32289;42.688;23.330;2023-03-21T15:24:40;15.40;68.00
46562;DHT22;32289;42.688;23.330;2023-03-21T15:28:24;15.30;71.10
46562;DHT22;32289;42.688;23.330;2023-03-21T15:32:21;15.00;75.70
46562;DHT22;32289;42.688;23.330;2023-03-21T15:36:08;14.80;79.40
46562;DHT22;32289;42.688;23.330;2023-03-21T15:39:49;14.60;83.30
46562;DHT22;32289;42.688;23.330;2023-03-21T15:43:37;14.40;88.70
46562;DHT22;32289;42.688;23.330;2023-03-21T15:47:41;14.20;90.00
46562;DHT22;32289;42.688;23.330;2023-03-21T15:51:23;14.00;88.90
46562;DHT22;32289;42.688;23.330;2023-03-21T15:55:16;13.90;85.40
46562;DHT22;32289;42.688;23.330;2023-03-21T15:59:02;13.80;91.40
46562;DHT22;32289;42.688;23.330;2023-03-21T16:02:43;13.40;95.60
46562;DHT22;32289;42.688;23.330;2023-03-21T16:06:32;13.60;99.20
46562;DHT22;32289;42.688;23.330;2023-03-21T16:10:29;13.80;98.40
46562;DHT22;32289;42.688;23.330;2023-03-21T16:14:11;14.00;99.10
46562;DHT22;32289;42.688;23.330;2023-03-21T16:17:59;13.90;99.90
46562;DHT22;32289;42.688;23.330;2023-03-21T16:21:41;13.00;99.90
46562;DHT22;32289;42.688;23.330;2023-03-21T16:25:21;12.30;99.90
46562;DHT22;32289;42.688;23.330;2023-03-21T16:29:03;12.00;99.90
46562;DHT22;32289;42.688;23.330;2023-03-21T16:32:45;12.20;99.90
46562;DHT22;32289;42.688;23.330;2023-03-21T16:36:30;12.40;99.90
46562;DHT22;32289;42.688;23.330;2023-03-21T16:40:25;12.40;99.90
46562;DHT22;32289;42.688;23.330;2023-03-21T16:44:07;12.30;99.90
46562;DHT22;32289;42.688;23.330;2023-03-21T16:47:48;12.10;99.90
46562;DHT22;32289;42.688;23.330;2023-03-21T16:51:34;12.10;99.90
46562;DHT22;32289;42.688;23.330;2023-03-21T16:55:15;12.20;99.90
46562;DHT22;32289;42.688;23.330;2023-03-21T16:58:57;12.10;99.90
46562;DHT22;32289;42.688;23.330;2023-03-21T17:02:38;12.10;99.90
46562;DHT22;32289;42.688;23.330;2023-03-21T17:06:21;12.10;99.90
46562;DHT22;32289;42.688;23.330;2023-03-21T17:10:09;12.30;99.90
46562;DHT22;32289;42.688;23.330;2023-03-21T17:13:55;12.40;99.90
46562;DHT22;32289;42.688;23.330;2023-03-21T17:17:35;12.40;99.90
46562;DHT22;32289;42.688;23.330;2023-03-21T17:21:22;12.30;99.90
46562;DHT22;32289;42.688;23.330;2023-03-21T17:25:03;12.20;99.90
46562;DHT22;32289;42.688;23.330;2023-03-21T17:28:44;12.20;99.90
46562;DHT22;32289;42.688;23.330;2023-03-21T17:32:24;12.10;99.90
46562;DHT22;32289;42.688;23.330;2023-03-21T17:36:08;12.10;99.90
46562;DHT22;32289;42.688;23.330;2023-03-21T17:39:50;12.20;99.90
46562;DHT22;32289;42.688;23.330;2023-03-21T17:43:31;11.90;99.90
46562;DHT22;32289;42.688;23.330;2023-03-21T17:47:12;11.90;99.90
46562;DHT22;32289;42.688;23.330;2023-03-21T17:50:52;11.90;99.90
46562;DHT22;32289;42.688;23.330;2023-03-21T17:54:33;11.80;99.90
46562;DHT22;32289;42.688;23.330;2023-03-21T17:58:14;11.70;99.90
46562;DHT22;32289;42.688;23.330;2023-03-21T18:01:57;11.80;99.90
46562;DHT22;32289;42.688;23.330;2023-03-21T18:05:38;11.70;99.90
46562;DHT22;32289;42.688;23.330;2023-03-21T18:09:18;11.60;99.90
46562;DHT22;32289;42.688;23.330;2023-03-21T18:13:00;11.70;99.90
46562;DHT22;32289;42.688;23.330;2023-03-21T18:16:41;11.60;99.90
46562;DHT22;32289;42.688;23.330;2023-03-21T18:20:23;11.70;99.90
46562;DHT22;32289;42.688;23.330;2023-03-21T18:24:06;11.50;99.90
46562;DHT22;32289;42.688;23.330;2023-03-21T18:27:48;11.40;99.90
46562;DHT22;32289;42.688;23.330;2023-03-21T18:31:28;11.40;99.90
46562;DHT22;32289;42.688;23.330;2023-03-21T18:35:11;11.40;99.90
46562;DHT22;32289;42.688;23.330;2023-03-21T18:38:52;11.20;99.90
46562;DHT22;32289;42.688;23.330;2023-03-21T18:42:32;11.10;99.90
46562;DHT22;32289;42.688;23.330;2023-03-21T18:46:13;11.10;99.90
46562;DHT22;32289;42.688;23.330;2023-03-21T18:49:55;11.00;99.90
46562;DHT22;32289;42.688;23.330;2023-03-21T18:53:35;11.10;99.90
46562;DHT22;32289;42.688;23.330;2023-03-21T18:57:16;11.10;99.90
46562;DHT22;32289;42.688;23.330;2023-03-21T19:00:57;10.90;99.90
46562;DHT22;32289;42.688;23.330;2023-03-21T19:04:37;11.00;99.90
46562;DHT22;32289;42.688;23.330;2023-03-21T19:08:18;11.00;99.90
46562;DHT22;32289;42.688;23.330;2023-03-21T19:12:00;11.00;99.90
46562;DHT22;32289;42.688;23.330;2023-03-21T19:15:41;11.00;99.90
46562;DHT22;32289;42.688;23.330;2023-03-21T19:19:24;10.90;99.90
46562;DHT22;32289;42.688;23.330;2023-03-21T19:23:05;10.60;99.90
46562;DHT22;32289;42.688;23.330;2023-03-21T19:26:47;10.60;99.90
46562;DHT22;32289;42.688;23.330;2023-03-21T19:30:28;10.60;99.90
46562;DHT22;32289;42.688;23.330;2023-03-21T19:34:08;10.50;99.90
46562;DHT22;32289;42.688;23.330;2023-03-21T19:37:49;10.60;99.90
46562;DHT22;32289;42.688;23.330;2023-03-21T19:41:30;10.60;99.90
46562;DHT22;32289;42.688;23.330;2023-03-21T19:45:11;10.60;99.90
46562;DHT22;32289;42.688;23.330;2023-03-21T19:48:55;10.60;99.90
46562;DHT22;32289;42.688;23.330;2023-03-21T19:52:35;10.60;99.90
46562;DHT22;32289;42.688;23.330;2023-03-21T19:56:17;10.40;99.90
46562;DHT22;32289;42.688;23.330;2023-03-21T19:59:57;10.40;99.90
46562;DHT22;32289;42.688;23.330;2023-03-21T20:03:38;10.50;99.90
46562;DHT22;32289;42.688;23.330;2023-03-21T20:07:19;10.40;99.90
46562;DHT22;32289;42.688;23.330;2023-03-21T20:11:00;10.40;99.90
46562;DHT22;32289;42.688;23.330;2023-03-21T20:14:41;10.40;99.90
46562;DHT22;32289;42.688;23.330;2023-03-21T20:18:26;10.30;99.90
46562;DHT22;32289;42.688;23.330;2023-03-21T20:22:07;10.30;99.90
46562;DHT22;32289;42.688;23.330;2023-03-21T20:25:48;10.30;99.90
46562;DHT22;32289;42.688;23.330;2023-03-21T20:29:29;10.30;99.90
46562;DHT22;32289;42.688;23.330;2023-03-21T20:33:10;10.30;99.90
46562;DHT22;32289;42.688;23.330;2023-03-21T20:36:51;10.30;99.90
46562;DHT22;32289;42.688;23.330;2023-03-21T20:40:32;10.30;99.90
46562;DHT22;32289;42.688;23.330;2023-03-21T20:44:13;10.30;99.90
46562;DHT22;32289;42.688;23.330;2023-03-21T20:47:57;10.10;99.90
46562;DHT22;32289;42.688;23.330;2023-03-21T20:51:39;10.20;99.90
46562;DHT22;32289;42.688;23.330;2023-03-21T20:55:20;10.30;99.90
46562;DHT22;32289;42.688;23.330;2023-03-21T20:59:01;10.30;99.90
46562;DHT22;32289;42.688;23.330;2023-03-21T21:02:44;10.20;99.90
46562;DHT22;32289;42.688;23.330;2023-03-21T21:06:26;10.20;99.90
46562;DHT22;32289;42.688;23.330;2023-03-21T21:10:10;10.10;99.90
46562;DHT22;32289;42.688;23.330;2023-03-21T21:13:52;10.10;99.90
46562;DHT22;32289;42.688;23.330;2023-03-21T21:17:34;10.00;99.90
46562;DHT22;32289;42.688;23.330;2023-03-21T21:21:15;9.70;99.90
46562;DHT22;32289;42.688;23.330;2023-03-21T21:24:56;9.70;99.90
46562;DHT22;32289;42.688;23.330;2023-03-21T21:28:37;9.50;99.90
46562;DHT22;32289;42.688;23.330;2023-03-21T21:32:22;9.70;99.90
46562;DHT22;32289;42.688;23.330;2023-03-21T21:36:07;9.80;99.90
46562;DHT22;32289;42.688;23.330;2023-03-21T21:39:48;9.80;99.90
46562;DHT22;32289;42.688;23.330;2023-03-21T21:43:30;9.60;99.90
46562;DHT22;32289;42.688;23.330;2023-03-21T21:47:11;9.60;99.90
46562;DHT22;32289;42.688;23.330;2023-03-21T21:50:52;9.60;99.90
46562;DHT22;32289;42.688;23.330;2023-03-21T21:54:33;9.50;99.90
46562;DHT22;32289;42.688;23.330;2023-03-21T21:58:16;9.60;99.90
46562;DHT22;32289;42.688;23.330;2023-03-21T22:02:00;9.50;99.90
46562;DHT22;32289;42.688;23.330;2023-03-21T22:05:41;9.40;99.90
46562;DHT22;32289;42.688;23.330;2023-03-21T22:09:23;9.30;99.90
46562;DHT22;32289;42.688;23.330;2023-03-21T22:13:05;9.10;99.90
46562;DHT22;32289;42.688;23.330;2023-03-21T22:16:45;8.90;99.90
46562;DHT22;32289;42.688;23.330;2023-03-21T22:20:26;9.10;99.90
46562;DHT22;32289;42.688;23.330;2023-03-21T22:24:07;9.10;99.90
46562;DHT22;32289;42.688;23.330;2023-03-21T22:27:48;8.90;99.90
46562;DHT22;32289;42.688;23.330;2023-03-21T22:31:28;9.30;99.90
46562;DHT22;32289;42.688;23.330;2023-03-21T22:35:10;9.40;99.90
46562;DHT22;32289;42.688;23.330;2023-03-21T22:38:50;9.40;99.90
46562;DHT22;32289;42.688;23.330;2023-03-21T22:42:31;9.40;99.90
46562;DHT22;32289;42.688;23.330;2023-03-21T22:46:12;9.40;99.90
46562;DHT22;32289;42.688;23.330;2023-03-21T22:49:52;9.30;99.90
46562;DHT22;32289;42.688;23.330;2023-03-21T22:53:33;9.10;99.90
46562;DHT22;32289;42.688;23.330;2023-03-21T22:57:14;9.10;99.90
46562;DHT22;32289;42.688;23.330;2023-03-21T23:01:00;9.00;99.90
46562;DHT22;32289;42.688;23.330;2023-03-21T23:04:41;9.00;99.90
46562;DHT22;32289;42.688;23.330;2023-03-21T23:08:22;9.10;99.90
46562;DHT22;32289;42.688;23.330;2023-03-21T23:12:03;9.00;99.90
46562;DHT22;32289;42.688;23.330;2023-03-21T23:15:44;8.90;99.90
46562;DHT22;32289;42.688;23.330;2023-03-21T23:19:25;9.10;99.90
46562;DHT22;32289;42.688;23.330;2023-03-21T23:23:08;9.20;99.90
46562;DHT22;32289;42.688;23.330;2023-03-21T23:26:48;9.20;99.90
46562;DHT22;32289;42.688;23.330;2023-03-21T23:30:29;9.30;99.90
46562;DHT22;32289;42.688;23.330;2023-03-21T23:34:10;9.30;99.90
46562;DHT22;32289;42.688;23.330;2023-03-21T23:37:51;9.30;99.90
46562;DHT22;32289;42.688;23.330;2023-03-21T23:41:32;9.30;99.90
46562;DHT22;32289;42.688;23.330;2023-03-21T23:45:14;9.30;99.90
46562;DHT22;32289;42.688;23.330;2023-03-21T23:48:55;9.10;99.90
46562;DHT22;32289;42.688;23.330;2023-03-21T23:52:37;9.10;99.90
46562;DHT22;32289;42.688;23.330;2023-03-21T23:56:25;9.10;99.90
